sensor_id;sensor_type;location;lat;lon;timestamp;pressure;altitude;pressure_sealevel;temperature;humidity
66681;BME280;73718;51.366;12.350;2024-03-25T00:01:18;98857.75;;;4.44;100.00
66681;BME280;73718;51.366;12.350;2024-03-25T00:03:43;98843.16;;;4.35;100.00
66681;BME280;73718;51.366;12.350;2024-03-25T00:06:09;98831.09;;;4.28;100.00
66681;BME280;73718;51.366;12.350;2024-03-25T00:08:35;98826.78;;;4.26;100.00
66681;BME280;73718;51.366;12.350;2024-03-25T00:11:02;98832.81;;;4.26;100.00
66681;BME280;73718;51.366;12.350;2024-03-25T00:13:27;98835.44;;;4.25;100.00
66681;BME280;73718;51.366;12.350;2024-03-25T00:15:52;98838.84;;;4.27;100.00
66681;BME280;73718;51.366;12.350;2024-03-25T00:18:18;98832.84;;;4.28;100.00
66681;BME280;73718;51.366;12.350;2024-03-25T00:20:43;98834.53;;;4.29;100.00
66681;BME280;73718;51.366;12.350;2024-03-25T00:23:09;98841.44;;;4.31;100.00
66681;BME280;73718;51.366;12.350;2024-03-25T00:25:34;98844.84;;;4.36;100.00
66681;BME280;73718;51.366;12.350;2024-03-25T00:28:00;98842.22;;;4.46;100.00
66681;BME280;73718;51.366;12.350;2024-03-25T00:30:25;98845.63;;;4.52;100.00
66681;BME280;73718;51.366;12.350;2024-03-25T00:32:51;98843.00;;;4.57;100.00
66681;BME280;73718;51.366;12.350;2024-03-25T00:35:16;98843.88;;;4.59;100.00
66681;BME280;73718;51.366;12.350;2024-03-25T00:37:43;98840.44;;;4.57;100.00
66681;BME280;73718;51.366;12.350;2024-03-25T00:40:10;98848.19;;;4.60;100.00
66681;BME280;73718;51.366;12.350;2024-03-25T00:42:36;98849.88;;;4.61;100.00
66681;BME280;73718;51.366;12.350;2024-03-25T00:45:02;98854.16;;;4.65;100.00
66681;BME280;73718;51.366;12.350;2024-03-25T00:47:28;98847.28;;;4.66;100.00
66681;BME280;73718;51.366;12.350;2024-03-25T00:49:53;98846.41;;;4.68;100.00
66681;BME280;73718;51.366;12.350;2024-03-25T00:52:18;98847.25;;;4.69;100.00
66681;BME280;73718;51.366;12.350;2024-03-25T00:54:44;98845.47;;;4.78;100.00
66681;BME280;73718;51.366;12.350;2024-03-25T00:57:09;98851.53;;;4.76;100.00
66681;BME280;73718;51.366;12.350;2024-03-25T00:59:37;98854.13;;;4.74;100.00
66681;BME280;73718;51.366;12.350;2024-03-25T01:02:02;98852.44;;;4.73;100.00
66681;BME280;73718;51.366;12.350;2024-03-25T01:04:27;98859.25;;;4.80;100.00
66681;BME280;73718;51.366;12.350;2024-03-25T01:06:54;98853.22;;;4.81;100.00
66681;BME280;73718;51.366;12.350;2024-03-25T01:09:19;98863.59;;;4.81;100.00
66681;BME280;73718;51.366;12.350;2024-03-25T01:11:47;98861.00;;;4.81;100.00
66681;BME280;73718;51.366;12.350;2024-03-25T01:14:12;98866.13;;;4.87;100.00
66681;BME280;73718;51.366;12.350;2024-03-25T01:16:38;98862.63;;;4.92;100.00
66681;BME280;73718;51.366;12.350;2024-03-25T01:19:03;98875.63;;;4.88;100.00
66681;BME280;73718;51.366;12.350;2024-03-25T01:21:29;98876.47;;;4.89;100.00
66681;BME280;73718;51.366;12.350;2024-03-25T01:23:55;98870.44;;;4.88;100.00
66681;BME280;73718;51.366;12.350;2024-03-25T01:26:21;98874.75;;;4.89;100.00
66681;BME280;73718;51.366;12.350;2024-03-25T01:28:47;98876.47;;;4.89;100.00
66681;BME280;73718;51.366;12.350;2024-03-25T01:31:12;98871.25;;;4.92;100.00
66681;BME280;73718;51.366;12.350;2024-03-25T01:33:38;98871.31;;;4.89;100.00
66681;BME280;73718;51.366;12.350;2024-03-25T01:36:03;98875.56;;;4.92;100.00
66681;BME280;73718;51.366;12.350;2024-03-25T01:38:29;98890.25;;;4.93;100.00
66681;BME280;73718;51.366;12.350;2024-03-25T01:40:54;98887.66;;;4.91;100.00
66681;BME280;73718;51.366;12.350;2024-03-25T01:43:22;98877.38;;;4.85;100.00
66681;BME280;73718;51.366;12.350;2024-03-25T01:45:47;98897.16;;;4.91;100.00
66681;BME280;73718;51.366;12.350;2024-03-25T01:48:14;98891.97;;;4.92;100.00
66681;BME280;73718;51.366;12.350;2024-03-25T01:50:43;98898.91;;;4.90;100.00
66681;BME280;73718;51.366;12.350;2024-03-25T01:53:11;98904.94;;;4.91;100.00
66681;BME280;73718;51.366;12.350;2024-03-25T01:55:38;98904.94;;;4.91;100.00
66681;BME280;73718;51.366;12.350;2024-03-25T01:58:04;98901.44;;;4.95;100.00
66681;BME280;73718;51.366;12.350;2024-03-25T02:00:31;98910.94;;;4.97;100.00
66681;BME280;73718;51.366;12.350;2024-03-25T02:02:57;98909.22;;;4.96;100.00
66681;BME280;73718;51.366;12.350;2024-03-25T02:05:22;98905.78;;;4.94;100.00
66681;BME280;73718;51.366;12.350;2024-03-25T02:07:49;98911.81;;;4.92;100.00
66681;BME280;73718;51.366;12.350;2024-03-25T02:10:15;98910.97;;;4.88;100.00
66681;BME280;73718;51.366;12.350;2024-03-25T02:12:41;98912.72;;;4.86;100.00
66681;BME280;73718;51.366;12.350;2024-03-25T02:15:08;98918.75;;;4.93;100.00
66681;BME280;73718;51.366;12.350;2024-03-25T02:17:34;98932.53;;;4.92;100.00
66681;BME280;73718;51.366;12.350;2024-03-25T02:20:00;98930.78;;;4.92;100.00
66681;BME280;73718;51.366;12.350;2024-03-25T02:22:26;98930.81;;;4.94;100.00
66681;BME280;73718;51.366;12.350;2024-03-25T02:24:53;98927.34;;;4.96;100.00
66681;BME280;73718;51.366;12.350;2024-03-25T02:27:19;98925.63;;;4.94;100.00
66681;BME280;73718;51.366;12.350;2024-03-25T02:29:44;98933.34;;;4.98;100.00
66681;BME280;73718;51.366;12.350;2024-03-25T02:32:10;98933.41;;;4.87;100.00
66681;BME280;73718;51.366;12.350;2024-03-25T02:34:41;98936.00;;;4.91;100.00
66681;BME280;73718;51.366;12.350;2024-03-25T02:37:09;98948.97;;;4.83;100.00
66681;BME280;73718;51.366;12.350;2024-03-25T02:39:35;98942.94;;;4.76;100.00
66681;BME280;73718;51.366;12.350;2024-03-25T02:42:01;98950.75;;;4.75;100.00
66681;BME280;73718;51.366;12.350;2024-03-25T02:44:26;98961.97;;;4.74;100.00
66681;BME280;73718;51.366;12.350;2024-03-25T02:46:52;98958.53;;;4.73;100.00
66681;BME280;73718;51.366;12.350;2024-03-25T02:49:18;98950.75;;;4.69;100.00
66681;BME280;73718;51.366;12.350;2024-03-25T02:51:43;98959.38;;;4.72;100.00
66681;BME280;73718;51.366;12.350;2024-03-25T02:54:08;98966.28;;;4.73;100.00
66681;BME280;73718;51.366;12.350;2024-03-25T02:56:34;98970.56;;;4.79;100.00
66681;BME280;73718;51.366;12.350;2024-03-25T02:59:00;98966.22;;;4.82;100.00
66681;BME280;73718;51.366;12.350;2024-03-25T03:01:26;98974.84;;;4.86;100.00
66681;BME280;73718;51.366;12.350;2024-03-25T03:03:51;98977.44;;;4.86;100.00
66681;BME280;73718;51.366;12.350;2024-03-25T03:06:17;98977.41;;;4.87;100.00
66681;BME280;73718;51.366;12.350;2024-03-25T03:08:44;98972.22;;;4.91;100.00
66681;BME280;73718;51.366;12.350;2024-03-25T03:11:09;98982.59;;;4.86;100.00
66681;BME280;73718;51.366;12.350;2024-03-25T03:13:35;98987.78;;;4.89;100.00
66681;BME280;73718;51.366;12.350;2024-03-25T03:16:00;98998.97;;;4.88;100.00
66681;BME280;73718;51.366;12.350;2024-03-25T03:18:25;99002.44;;;4.90;100.00
66681;BME280;73718;51.366;12.350;2024-03-25T03:20:51;99004.16;;;4.89;100.00
66681;BME280;73718;51.366;12.350;2024-03-25T03:23:16;99004.13;;;4.94;100.00
66681;BME280;73718;51.366;12.350;2024-03-25T03:25:42;98999.88;;;4.88;100.00
66681;BME280;73718;51.366;12.350;2024-03-25T03:28:08;99005.91;;;4.89;100.00
66681;BME280;73718;51.366;12.350;2024-03-25T03:30:33;99004.16;;;4.89;100.00
66681;BME280;73718;51.366;12.350;2024-03-25T03:32:58;99001.56;;;4.89;100.00
66681;BME280;73718;51.366;12.350;2024-03-25T03:35:24;99005.91;;;4.89;100.00
66681;BME280;73718;51.366;12.350;2024-03-25T03:37:49;99016.22;;;4.91;100.00
66681;BME280;73718;51.366;12.350;2024-03-25T03:40:15;99022.31;;;4.85;100.00
66681;BME280;73718;51.366;12.350;2024-03-25T03:42:40;99025.75;;;4.85;100.00
66681;BME280;73718;51.366;12.350;2024-03-25T03:45:06;99020.59;;;4.79;100.00
66681;BME280;73718;51.366;12.350;2024-03-25T03:47:32;99030.94;;;4.76;100.00
66681;BME280;73718;51.366;12.350;2024-03-25T03:49:57;99037.00;;;4.74;100.00
66681;BME280;73718;51.366;12.350;2024-03-25T03:52:23;99041.34;;;4.70;100.00
66681;BME280;73718;51.366;12.350;2024-03-25T03:54:48;99045.63;;;4.74;100.00
66681;BME280;73718;51.366;12.350;2024-03-25T03:57:14;99057.69;;;4.72;100.00
66681;BME280;73718;51.366;12.350;2024-03-25T03:59:39;99056.84;;;4.70;100.00
66681;BME280;73718;51.366;12.350;2024-03-25T04:02:04;99050.81;;;4.68;100.00
66681;BME280;73718;51.366;12.350;2024-03-25T04:04:30;99049.97;;;4.60;100.00
66681;BME280;73718;51.366;12.350;2024-03-25T04:06:55;99058.63;;;4.56;100.00
66681;BME280;73718;51.366;12.350;2024-03-25T04:09:21;99060.31;;;4.54;100.00
66681;BME280;73718;51.366;12.350;2024-03-25T04:11:48;99047.41;;;4.45;100.00
66681;BME280;73718;51.366;12.350;2024-03-25T04:14:14;99063.81;;;4.37;100.00
66681;BME280;73718;51.366;12.350;2024-03-25T04:16:39;99065.53;;;4.34;100.00
66681;BME280;73718;51.366;12.350;2024-03-25T04:19:05;99068.13;;;4.32;100.00
66681;BME280;73718;51.366;12.350;2024-03-25T04:21:30;99063.81;;;4.33;100.00
66681;BME280;73718;51.366;12.350;2024-03-25T04:23:55;99078.47;;;4.40;100.00
66681;BME280;73718;51.366;12.350;2024-03-25T04:26:21;99073.31;;;4.37;100.00
66681;BME280;73718;51.366;12.350;2024-03-25T04:28:46;99069.00;;;4.36;100.00
66681;BME280;73718;51.366;12.350;2024-03-25T04:31:12;99071.56;;;4.37;100.00
66681;BME280;73718;51.366;12.350;2024-03-25T04:33:37;99075.88;;;4.34;100.00
66681;BME280;73718;51.366;12.350;2024-03-25T04:36:03;99087.97;;;4.39;100.00
66681;BME280;73718;51.366;12.350;2024-03-25T04:38:28;99096.56;;;4.40;100.00
66681;BME280;73718;51.366;12.350;2024-03-25T04:40:54;99093.13;;;4.39;100.00
66681;BME280;73718;51.366;12.350;2024-03-25T04:43:19;99103.44;;;4.43;100.00
66681;BME280;73718;51.366;12.350;2024-03-25T04:45:46;99101.75;;;4.37;100.00
66681;BME280;73718;51.366;12.350;2024-03-25T04:48:11;99099.16;;;4.34;100.00
66681;BME280;73718;51.366;12.350;2024-03-25T04:50:36;99109.50;;;4.32;100.00
66681;BME280;73718;51.366;12.350;2024-03-25T04:53:02;99110.38;;;4.31;100.00
66681;BME280;73718;51.366;12.350;2024-03-25T04:55:27;99119.88;;;4.35;100.00
66681;BME280;73718;51.366;12.350;2024-03-25T04:57:53;99123.31;;;4.39;100.00
66681;BME280;73718;51.366;12.350;2024-03-25T05:00:18;99124.16;;;4.39;100.00
66681;BME280;73718;51.366;12.350;2024-03-25T05:02:44;99124.16;;;4.36;100.00
66681;BME280;73718;51.366;12.350;2024-03-25T05:05:09;99122.44;;;4.37;100.00
66681;BME280;73718;51.366;12.350;2024-03-25T05:07:35;99136.22;;;4.37;100.00
66681;BME280;73718;51.366;12.350;2024-03-25T05:10:00;99135.38;;;4.42;100.00
66681;BME280;73718;51.366;12.350;2024-03-25T05:12:26;99131.94;;;4.36;100.00
66681;BME280;73718;51.366;12.350;2024-03-25T05:14:58;99134.50;;;4.47;100.00
66681;BME280;73718;51.366;12.350;2024-03-25T05:17:24;99145.72;;;4.51;100.00
66681;BME280;73718;51.366;12.350;2024-03-25T05:19:49;99153.47;;;4.52;100.00
66681;BME280;73718;51.366;12.350;2024-03-25T05:22:16;99149.16;;;4.54;100.00
66681;BME280;73718;51.366;12.350;2024-03-25T05:24:41;99145.69;;;4.57;100.00
66681;BME280;73718;51.366;12.350;2024-03-25T05:27:06;99156.03;;;4.54;100.00
66681;BME280;73718;51.366;12.350;2024-03-25T05:29:32;99149.16;;;4.57;100.00
66681;BME280;73718;51.366;12.350;2024-03-25T05:32:01;99149.16;;;4.57;100.00
66681;BME280;73718;51.366;12.350;2024-03-25T05:34:28;99158.66;;;4.58;100.00
66681;BME280;73718;51.366;12.350;2024-03-25T05:36:53;99161.22;;;4.60;100.00
66681;BME280;73718;51.366;12.350;2024-03-25T05:39:19;99156.03;;;4.64;100.00
66681;BME280;73718;51.366;12.350;2024-03-25T05:41:45;99167.25;;;4.68;100.00
66681;BME280;73718;51.366;12.350;2024-03-25T05:44:10;99173.28;;;4.72;100.00
66681;BME280;73718;51.366;12.350;2024-03-25T05:46:36;99164.66;;;4.71;100.00
66681;BME280;73718;51.366;12.350;2024-03-25T05:49:03;99170.69;;;4.72;100.00
66681;BME280;73718;51.366;12.350;2024-03-25T05:51:29;99177.59;;;4.71;100.00
66681;BME280;73718;51.366;12.350;2024-03-25T05:53:55;99173.31;;;4.70;100.00
66681;BME280;73718;51.366;12.350;2024-03-25T05:56:21;99177.63;;;4.77;100.00
66681;BME280;73718;51.366;12.350;2024-03-25T05:58:46;99181.03;;;4.79;100.00
66681;BME280;73718;51.366;12.350;2024-03-25T06:01:12;99181.91;;;4.72;100.00
66681;BME280;73718;51.366;12.350;2024-03-25T06:03:37;99181.06;;;4.78;100.00
66681;BME280;73718;51.366;12.350;2024-03-25T06:06:03;99191.38;;;4.84;100.00
66681;BME280;73718;51.366;12.350;2024-03-25T06:08:28;99189.66;;;4.87;100.00
66681;BME280;73718;51.366;12.350;2024-03-25T06:10:54;99190.53;;;4.93;100.00
66681;BME280;73718;51.366;12.350;2024-03-25T06:13:20;99193.09;;;4.96;100.00
66681;BME280;73718;51.366;12.350;2024-03-25T06:15:46;99194.84;;;4.98;100.00
66681;BME280;73718;51.366;12.350;2024-03-25T06:18:11;99200.84;;;5.06;100.00
66681;BME280;73718;51.366;12.350;2024-03-25T06:20:37;99206.91;;;5.04;100.00
66681;BME280;73718;51.366;12.350;2024-03-25T06:23:03;99207.75;;;5.03;100.00
66681;BME280;73718;51.366;12.350;2024-03-25T06:25:29;99212.09;;;5.05;100.00
66681;BME280;73718;51.366;12.350;2024-03-25T06:27:55;99213.78;;;5.11;100.00
66681;BME280;73718;51.366;12.350;2024-03-25T06:30:20;99221.56;;;5.14;100.00
66681;BME280;73718;51.366;12.350;2024-03-25T06:33:04;99231.03;;;5.18;100.00
66681;BME280;73718;51.366;12.350;2024-03-25T06:35:48;99236.22;;;5.27;100.00
66681;BME280;73718;51.366;12.350;2024-03-25T06:38:14;99233.66;;;5.20;100.00
66681;BME280;73718;51.366;12.350;2024-03-25T06:40:39;99235.34;;;5.21;100.00
66681;BME280;73718;51.366;12.350;2024-03-25T06:43:05;99243.13;;;5.28;100.00
66681;BME280;73718;51.366;12.350;2024-03-25T06:45:31;99227.56;;;5.33;100.00
66681;BME280;73718;51.366;12.350;2024-03-25T06:47:57;99231.84;;;5.43;100.00
66681;BME280;73718;51.366;12.350;2024-03-25T06:50:23;99231.84;;;5.51;100.00
66681;BME280;73718;51.366;12.350;2024-03-25T06:52:49;99237.84;;;5.59;100.00
66681;BME280;73718;51.366;12.350;2024-03-25T06:55:15;99233.53;;;5.62;100.00
66681;BME280;73718;51.366;12.350;2024-03-25T06:57:40;99242.09;;;5.72;100.00
66681;BME280;73718;51.366;12.350;2024-03-25T07:00:06;99250.75;;;5.80;100.00
66681;BME280;73718;51.366;12.350;2024-03-25T07:02:36;99246.44;;;5.78;100.00
66681;BME280;73718;51.366;12.350;2024-03-25T07:05:01;99259.38;;;5.79;100.00
66681;BME280;73718;51.366;12.350;2024-03-25T07:07:26;99263.66;;;5.90;100.00
66681;BME280;73718;51.366;12.350;2024-03-25T07:09:52;99268.84;;;5.94;100.00
66681;BME280;73718;51.366;12.350;2024-03-25T07:12:17;99270.56;;;6.00;100.00
66681;BME280;73718;51.366;12.350;2024-03-25T07:14:43;99274.91;;;5.95;100.00
66681;BME280;73718;51.366;12.350;2024-03-25T07:17:09;99276.63;;;5.94;100.00
66681;BME280;73718;51.366;12.350;2024-03-25T07:19:34;99278.34;;;6.00;100.00
66681;BME280;73718;51.366;12.350;2024-03-25T07:22:00;99274.00;;;5.99;100.00
66681;BME280;73718;51.366;12.350;2024-03-25T07:24:25;99268.81;;;6.05;100.00
66681;BME280;73718;51.366;12.350;2024-03-25T07:26:50;99284.31;;;6.19;100.00
66681;BME280;73718;51.366;12.350;2024-03-25T07:29:16;99281.66;;;6.25;100.00
66681;BME280;73718;51.366;12.350;2024-03-25T07:31:41;99268.66;;;6.32;100.00
66681;BME280;73718;51.366;12.350;2024-03-25T07:34:07;99278.16;;;6.41;100.00
66681;BME280;73718;51.366;12.350;2024-03-25T07:36:32;99278.94;;;6.51;100.00
66681;BME280;73718;51.366;12.350;2024-03-25T07:39:00;99291.88;;;6.55;100.00
66681;BME280;73718;51.366;12.350;2024-03-25T07:41:25;99284.16;;;6.49;100.00
66681;BME280;73718;51.366;12.350;2024-03-25T07:43:51;99284.13;;;6.51;100.00
66681;BME280;73718;51.366;12.350;2024-03-25T07:46:16;99284.00;;;6.68;100.00
66681;BME280;73718;51.366;12.350;2024-03-25T07:48:41;99281.41;;;6.72;100.00
66681;BME280;73718;51.366;12.350;2024-03-25T07:51:07;99294.25;;;6.88;100.00
66681;BME280;73718;51.366;12.350;2024-03-25T07:53:32;99288.16;;;6.93;100.00
66681;BME280;73718;51.366;12.350;2024-03-25T07:55:58;99294.13;;;7.04;100.00
66681;BME280;73718;51.366;12.350;2024-03-25T07:58:23;99300.03;;;7.22;100.00
66681;BME280;73718;51.366;12.350;2024-03-25T08:00:49;99304.25;;;7.37;98.62
66681;BME280;73718;51.366;12.350;2024-03-25T08:03:15;99314.66;;;7.37;96.13
66681;BME280;73718;51.366;12.350;2024-03-25T08:05:40;99306.78;;;7.40;95.69
66681;BME280;73718;51.366;12.350;2024-03-25T08:08:06;99316.22;;;7.50;93.96
66681;BME280;73718;51.366;12.350;2024-03-25T08:10:31;99319.63;;;7.55;92.94
66681;BME280;73718;51.366;12.350;2024-03-25T08:12:57;99323.09;;;7.57;91.52
66681;BME280;73718;51.366;12.350;2024-03-25T08:15:22;99314.34;;;7.67;92.26
66681;BME280;73718;51.366;12.350;2024-03-25T08:17:47;99309.00;;;7.79;93.16
66681;BME280;73718;51.366;12.350;2024-03-25T08:20:13;99322.75;;;7.89;96.04
66681;BME280;73718;51.366;12.350;2024-03-25T08:22:39;99322.81;;;7.86;97.17
66681;BME280;73718;51.366;12.350;2024-03-25T08:25:04;99332.41;;;7.79;97.96
66681;BME280;73718;51.366;12.350;2024-03-25T08:27:30;99345.72;;;7.49;99.49
66681;BME280;73718;51.366;12.350;2024-03-25T08:29:55;99331.19;;;7.26;100.00
66681;BME280;73718;51.366;12.350;2024-03-25T08:32:21;99347.75;;;7.15;100.00
66681;BME280;73718;51.366;12.350;2024-03-25T08:34:46;99351.16;;;7.17;100.00
66681;BME280;73718;51.366;12.350;2024-03-25T08:37:12;99349.41;;;7.20;100.00
66681;BME280;73718;51.366;12.350;2024-03-25T08:39:37;99340.81;;;7.12;100.00
66681;BME280;73718;51.366;12.350;2024-03-25T08:42:03;99351.09;;;7.29;100.00
66681;BME280;73718;51.366;12.350;2024-03-25T08:44:28;99344.91;;;7.39;100.00
66681;BME280;73718;51.366;12.350;2024-03-25T08:46:54;99354.28;;;7.60;100.00
66681;BME280;73718;51.366;12.350;2024-03-25T08:49:20;99351.47;;;7.80;100.00
66681;BME280;73718;51.366;12.350;2024-03-25T08:51:45;99362.50;;;8.00;98.52
66681;BME280;73718;51.366;12.350;2024-03-25T08:54:11;99356.44;;;8.00;96.75
66681;BME280;73718;51.366;12.350;2024-03-25T08:56:36;99359.06;;;8.00;96.22
66681;BME280;73718;51.366;12.350;2024-03-25T08:59:02;99363.47;;;7.95;96.08
66681;BME280;73718;51.366;12.350;2024-03-25T09:01:28;99347.84;;;7.95;95.26
66681;BME280;73718;51.366;12.350;2024-03-25T09:03:54;99358.22;;;7.96;96.25
66681;BME280;73718;51.366;12.350;2024-03-25T09:06:19;99354.03;;;7.85;95.86
66681;BME280;73718;51.366;12.350;2024-03-25T09:08:44;99366.94;;;7.94;96.23
66681;BME280;73718;51.366;12.350;2024-03-25T09:11:28;99359.94;;;7.99;95.48
66681;BME280;73718;51.366;12.350;2024-03-25T09:13:54;99357.41;;;7.90;95.19
66681;BME280;73718;51.366;12.350;2024-03-25T09:16:19;99387.19;;;7.61;98.63
66681;BME280;73718;51.366;12.350;2024-03-25T09:18:45;99375.53;;;7.02;100.00
66681;BME280;73718;51.366;12.350;2024-03-25T09:21:10;99381.06;;;6.36;100.00
66681;BME280;73718;51.366;12.350;2024-03-25T09:23:36;99377.69;;;6.14;100.00
66681;BME280;73718;51.366;12.350;2024-03-25T09:26:01;99366.50;;;6.04;100.00
66681;BME280;73718;51.366;12.350;2024-03-25T09:28:27;99363.84;;;6.26;100.00
66681;BME280;73718;51.366;12.350;2024-03-25T09:30:52;99368.09;;;6.39;100.00
66681;BME280;73718;51.366;12.350;2024-03-25T09:33:17;99370.66;;;6.47;100.00
66681;BME280;73718;51.366;12.350;2024-03-25T09:35:43;99378.38;;;6.62;100.00
66681;BME280;73718;51.366;12.350;2024-03-25T09:38:08;99370.53;;;6.73;100.00
66681;BME280;73718;51.366;12.350;2024-03-25T09:40:39;99375.63;;;6.88;100.00
66681;BME280;73718;51.366;12.350;2024-03-25T09:43:09;99371.94;;;7.21;100.00
66681;BME280;73718;51.366;12.350;2024-03-25T09:45:39;99370.81;;;7.50;100.00
66681;BME280;73718;51.366;12.350;2024-03-25T09:48:05;99377.59;;;7.66;100.00
66681;BME280;73718;51.366;12.350;2024-03-25T09:50:32;99384.47;;;7.75;100.00
66681;BME280;73718;51.366;12.350;2024-03-25T09:52:57;99377.56;;;7.69;100.00
66681;BME280;73718;51.366;12.350;2024-03-25T09:55:22;99378.47;;;7.67;100.00
66681;BME280;73718;51.366;12.350;2024-03-25T09:57:48;99374.91;;;7.77;100.00
66681;BME280;73718;51.366;12.350;2024-03-25T10:00:13;99372.31;;;7.77;100.00
66681;BME280;73718;51.366;12.350;2024-03-25T10:02:40;99376.59;;;7.81;100.00
66681;BME280;73718;51.366;12.350;2024-03-25T10:05:07;99378.31;;;7.82;98.34
66681;BME280;73718;51.366;12.350;2024-03-25T10:07:32;99374.94;;;7.74;96.18
66681;BME280;73718;51.366;12.350;2024-03-25T10:09:58;99388.84;;;7.71;96.76
66681;BME280;73718;51.366;12.350;2024-03-25T10:12:24;99381.91;;;7.69;95.72
66681;BME280;73718;51.366;12.350;2024-03-25T10:14:49;99384.13;;;8.07;94.72
66681;BME280;73718;51.366;12.350;2024-03-25T10:17:15;99375.63;;;8.65;94.44
66681;BME280;73718;51.366;12.350;2024-03-25T10:19:40;99373.91;;;9.24;91.35
66681;BME280;73718;51.366;12.350;2024-03-25T10:22:07;99382.75;;;9.68;88.05
66681;BME280;73718;51.366;12.350;2024-03-25T10:24:40;99390.13;;;9.43;82.99
66681;BME280;73718;51.366;12.350;2024-03-25T10:27:10;99374.56;;;9.37;83.15
66681;BME280;73718;51.366;12.350;2024-03-25T10:29:37;99377.94;;;9.44;84.06
66681;BME280;73718;51.366;12.350;2024-03-25T10:32:02;99373.03;;;9.25;84.32
66681;BME280;73718;51.366;12.350;2024-03-25T10:34:29;99367.50;;;8.90;83.54
66681;BME280;73718;51.366;12.350;2024-03-25T10:36:57;99373.53;;;8.92;85.35
66681;BME280;73718;51.366;12.350;2024-03-25T10:39:27;99376.47;;;8.70;84.37
66681;BME280;73718;51.366;12.350;2024-03-25T10:41:56;99378.59;;;8.36;86.97
66681;BME280;73718;51.366;12.350;2024-03-25T10:44:23;99389.31;;;8.09;88.95
66681;BME280;73718;51.366;12.350;2024-03-25T10:46:55;99384.19;;;8.01;90.84
66681;BME280;73718;51.366;12.350;2024-03-25T10:49:49;99383.03;;;8.28;91.74
66681;BME280;73718;51.366;12.350;2024-03-25T10:52:15;99393.03;;;8.63;89.53
66681;BME280;73718;51.366;12.350;2024-03-25T10:54:42;99389.31;;;8.81;87.94
66681;BME280;73718;51.366;12.350;2024-03-25T10:57:09;99386.38;;;9.06;88.39
66681;BME280;73718;51.366;12.350;2024-03-25T10:59:36;99393.03;;;9.25;86.83
66681;BME280;73718;51.366;12.350;2024-03-25T11:02:07;99392.22;;;9.21;86.94
66681;BME280;73718;51.366;12.350;2024-03-25T11:04:33;99402.00;;;9.06;85.17
66681;BME280;73718;51.366;12.350;2024-03-25T11:07:09;99394.19;;;9.04;84.21
66681;BME280;73718;51.366;12.350;2024-03-25T11:09:36;99394.31;;;8.98;83.17
66681;BME280;73718;51.366;12.350;2024-03-25T11:12:01;99398.03;;;8.80;83.73
66681;BME280;73718;51.366;12.350;2024-03-25T11:14:27;99394.41;;;8.89;82.59
66681;BME280;73718;51.366;12.350;2024-03-25T11:16:54;99391.56;;;9.07;80.38
66681;BME280;73718;51.366;12.350;2024-03-25T11:19:20;99390.53;;;9.17;78.44
66681;BME280;73718;51.366;12.350;2024-03-25T11:21:46;99394.44;;;9.44;75.86
66681;BME280;73718;51.366;12.350;2024-03-25T11:24:12;99389.47;;;9.82;74.28
66681;BME280;73718;51.366;12.350;2024-03-25T11:26:41;99391.91;;;9.91;72.70
66681;BME280;73718;51.366;12.350;2024-03-25T11:29:07;99382.84;;;10.12;73.74
66681;BME280;73718;51.366;12.350;2024-03-25T11:31:33;99386.03;;;10.28;73.04
66681;BME280;73718;51.366;12.350;2024-03-25T11:34:08;99380.72;;;10.32;73.05
66681;BME280;73718;51.366;12.350;2024-03-25T11:36:33;99381.66;;;10.28;73.38
66681;BME280;73718;51.366;12.350;2024-03-25T11:39:05;99371.97;;;10.35;74.16
66681;BME280;73718;51.366;12.350;2024-03-25T11:41:43;99383.06;;;10.46;74.07
66681;BME280;73718;51.366;12.350;2024-03-25T11:44:09;99378.47;;;10.56;73.29
66681;BME280;73718;51.366;12.350;2024-03-25T11:46:36;99368.78;;;10.62;72.10
66681;BME280;73718;51.366;12.350;2024-03-25T11:49:05;99365.00;;;10.34;72.31
66681;BME280;73718;51.366;12.350;2024-03-25T11:51:31;99373.41;;;10.03;73.94
66681;BME280;73718;51.366;12.350;2024-03-25T11:53:56;99373.69;;;9.88;74.18
66681;BME280;73718;51.366;12.350;2024-03-25T11:56:25;99371.16;;;9.85;73.85
66681;BME280;73718;51.366;12.350;2024-03-25T11:58:50;99373.78;;;9.85;73.84
66681;BME280;73718;51.366;12.350;2024-03-25T12:01:15;99363.47;;;9.75;73.51
66681;BME280;73718;51.366;12.350;2024-03-25T12:03:41;99377.94;;;9.93;73.46
66681;BME280;73718;51.366;12.350;2024-03-25T12:06:06;99377.72;;;10.06;71.68
66681;BME280;73718;51.366;12.350;2024-03-25T12:08:32;99373.41;;;10.05;70.77
66681;BME280;73718;51.366;12.350;2024-03-25T12:11:01;99368.50;;;10.33;71.45
66681;BME280;73718;51.366;12.350;2024-03-25T12:13:45;99368.69;;;10.23;69.76
66681;BME280;73718;51.366;12.350;2024-03-25T12:16:10;99364.47;;;10.16;70.89
66681;BME280;73718;51.366;12.350;2024-03-25T12:18:39;99365.09;;;10.31;70.92
66681;BME280;73718;51.366;12.350;2024-03-25T12:21:06;99365.16;;;10.24;71.32
66681;BME280;73718;51.366;12.350;2024-03-25T12:23:32;99369.53;;;10.22;71.63
66681;BME280;73718;51.366;12.350;2024-03-25T12:26:01;99383.78;;;10.06;71.19
66681;BME280;73718;51.366;12.350;2024-03-25T12:28:27;99374.78;;;9.77;71.06
66681;BME280;73718;51.366;12.350;2024-03-25T12:30:53;99373.78;;;9.83;72.41
66681;BME280;73718;51.366;12.350;2024-03-25T12:33:23;99379.63;;;9.97;71.04
66681;BME280;73718;51.366;12.350;2024-03-25T12:35:49;99367.38;;;9.99;71.87
66681;BME280;73718;51.366;12.350;2024-03-25T12:38:25;99364.41;;;10.18;71.69
66681;BME280;73718;51.366;12.350;2024-03-25T12:40:50;99356.78;;;10.54;71.25
66681;BME280;73718;51.366;12.350;2024-03-25T12:43:16;99353.56;;;10.81;70.77
66681;BME280;73718;51.366;12.350;2024-03-25T12:45:42;99355.16;;;10.87;70.38
66681;BME280;73718;51.366;12.350;2024-03-25T12:48:08;99354.63;;;10.72;69.08